sensor_id;sensor_type;location;lat;lon;timestamp;P1;durP1;ratioP1;P2;durP2;ratioP2
57899;SDS011;60605;53.716;19.940;2023-09-19T00:02:18;12.60;;;11.30;;
57899;SDS011;60605;53.716;19.940;2023-09-19T00:07:22;15.20;;;11.80;;
57899;SDS011;60605;53.716;19.940;2023-09-19T00:12:25;15.00;;;11.20;;
57899;SDS011;60605;53.716;19.940;2023-09-19T00:17:29;13.40;;;12.10;;
57899;SDS011;60605;53.716;19.940;2023-09-19T00:22:34;14.30;;;11.50;;
57899;SDS011;60605;53.716;19.940;2023-09-19T00:27:39;16.10;;;13.00;;
57899;SDS011;60605;53.716;19.940;2023-09-19T00:32:43;13.60;;;12.10;;
57899;SDS011;60605;53.716;19.940;2023-09-19T00:37:47;13.40;;;12.00;;
57899;SDS011;60605;53.716;19.940;2023-09-19T00:42:50;16.00;;;11.90;;
57899;SDS011;60605;53.716;19.940;2023-09-19T00:47:54;14.10;;;12.40;;
57899;SDS011;60605;53.716;19.940;2023-09-19T00:52:57;16.40;;;13.30;;
57899;SDS011;60605;53.716;19.940;2023-09-19T00:58:02;14.50;;;13.00;;
57899;SDS011;60605;53.716;19.940;2023-09-19T01:03:05;17.20;;;12.80;;
57899;SDS011;60605;53.716;19.940;2023-09-19T01:08:09;15.20;;;13.20;;
57899;SDS011;60605;53.716;19.940;2023-09-19T01:18:43;15.20;;;13.70;;
57899;SDS011;60605;53.716;19.940;2023-09-19T01:30:01;15.30;;;13.80;;
57899;SDS011;60605;53.716;19.940;2023-09-19T01:35:25;17.10;;;13.30;;
57899;SDS011;60605;53.716;19.940;2023-09-19T01:40:29;15.40;;;13.80;;
57899;SDS011;60605;53.716;19.940;2023-09-19T01:56:16;16.80;;;14.20;;
57899;SDS011;60605;53.716;19.940;2023-09-19T02:01:33;17.80;;;15.90;;
57899;SDS011;60605;53.716;19.940;2023-09-19T02:06:41;17.30;;;15.40;;
57899;SDS011;60605;53.716;19.940;2023-09-19T02:11:45;17.40;;;15.60;;
57899;SDS011;60605;53.716;19.940;2023-09-19T02:16:49;17.00;;;15.20;;
57899;SDS011;60605;53.716;19.940;2023-09-19T02:21:53;18.20;;;15.20;;
57899;SDS011;60605;53.716;19.940;2023-09-19T02:26:56;17.80;;;15.80;;
57899;SDS011;60605;53.716;19.940;2023-09-19T02:32:02;17.00;;;15.40;;
57899;SDS011;60605;53.716;19.940;2023-09-19T02:37:07;18.60;;;15.70;;
57899;SDS011;60605;53.716;19.940;2023-09-19T02:42:11;18.20;;;16.40;;
57899;SDS011;60605;53.716;19.940;2023-09-19T02:47:14;22.50;;;18.10;;
57899;SDS011;60605;53.716;19.940;2023-09-19T02:52:19;18.70;;;16.80;;
57899;SDS011;60605;53.716;19.940;2023-09-19T02:57:23;19.30;;;17.30;;
57899;SDS011;60605;53.716;19.940;2023-09-19T03:02:27;21.50;;;19.10;;
57899;SDS011;60605;53.716;19.940;2023-09-19T03:07:30;22.80;;;19.10;;
57899;SDS011;60605;53.716;19.940;2023-09-19T03:12:34;19.60;;;17.60;;
57899;SDS011;60605;53.716;19.940;2023-09-19T03:17:43;20.30;;;18.00;;
57899;SDS011;60605;53.716;19.940;2023-09-19T03:22:50;19.90;;;18.00;;
57899;SDS011;60605;53.716;19.940;2023-09-19T03:27:56;22.30;;;20.00;;
57899;SDS011;60605;53.716;19.940;2023-09-19T03:33:00;21.40;;;18.30;;
57899;SDS011;60605;53.716;19.940;2023-09-19T03:38:04;23.50;;;19.30;;
57899;SDS011;60605;53.716;19.940;2023-09-19T03:43:08;20.40;;;18.20;;
57899;SDS011;60605;53.716;19.940;2023-09-19T03:48:11;22.70;;;19.10;;
57899;SDS011;60605;53.716;19.940;2023-09-19T03:53:15;21.20;;;18.20;;
57899;SDS011;60605;53.716;19.940;2023-09-19T03:58:19;21.50;;;18.70;;
57899;SDS011;60605;53.716;19.940;2023-09-19T04:03:23;21.70;;;19.20;;
57899;SDS011;60605;53.716;19.940;2023-09-19T04:08:38;22.90;;;19.10;;
57899;SDS011;60605;53.716;19.940;2023-09-19T04:13:41;20.70;;;18.40;;
57899;SDS011;60605;53.716;19.940;2023-09-19T04:18:45;20.10;;;18.10;;
57899;SDS011;60605;53.716;19.940;2023-09-19T04:23:49;24.50;;;19.50;;
57899;SDS011;60605;53.716;19.940;2023-09-19T04:28:52;22.80;;;19.00;;
57899;SDS011;60605;53.716;19.940;2023-09-19T04:33:55;21.20;;;19.10;;
57899;SDS011;60605;53.716;19.940;2023-09-19T04:38:59;20.40;;;18.30;;
57899;SDS011;60605;53.716;19.940;2023-09-19T04:44:03;21.20;;;18.90;;
57899;SDS011;60605;53.716;19.940;2023-09-19T04:49:07;20.20;;;17.30;;
57899;SDS011;60605;53.716;19.940;2023-09-19T04:54:12;18.10;;;16.40;;
57899;SDS011;60605;53.716;19.940;2023-09-19T04:59:15;19.30;;;17.30;;
57899;SDS011;60605;53.716;19.940;2023-09-19T05:04:19;24.90;;;18.10;;
57899;SDS011;60605;53.716;19.940;2023-09-19T05:09:22;19.80;;;16.80;;
57899;SDS011;60605;53.716;19.940;2023-09-19T05:14:25;21.70;;;17.80;;
57899;SDS011;60605;53.716;19.940;2023-09-19T05:19:28;20.70;;;17.70;;
57899;SDS011;60605;53.716;19.940;2023-09-19T05:24:32;19.60;;;16.70;;
57899;SDS011;60605;53.716;19.940;2023-09-19T05:29:35;17.90;;;16.00;;
57899;SDS011;60605;53.716;19.940;2023-09-19T05:34:38;19.40;;;16.30;;
57899;SDS011;60605;53.716;19.940;2023-09-19T05:39:42;17.20;;;15.10;;
57899;SDS011;60605;53.716;19.940;2023-09-19T05:44:46;21.50;;;15.90;;
57899;SDS011;60605;53.716;19.940;2023-09-19T05:49:49;19.30;;;16.90;;
57899;SDS011;60605;53.716;19.940;2023-09-19T05:54:53;27.00;;;17.20;;
57899;SDS011;60605;53.716;19.940;2023-09-19T05:59:57;22.50;;;18.00;;
57899;SDS011;60605;53.716;19.940;2023-09-19T06:05:00;24.40;;;18.20;;
57899;SDS011;60605;53.716;19.940;2023-09-19T06:10:05;22.90;;;19.00;;
57899;SDS011;60605;53.716;19.940;2023-09-19T06:15:10;23.20;;;20.20;;
57899;SDS011;60605;53.716;19.940;2023-09-19T06:20:25;24.10;;;20.50;;
57899;SDS011;60605;53.716;19.940;2023-09-19T06:25:30;23.30;;;20.60;;
57899;SDS011;60605;53.716;19.940;2023-09-19T06:30:34;23.20;;;19.50;;
57899;SDS011;60605;53.716;19.940;2023-09-19T06:35:39;22.90;;;20.50;;
57899;SDS011;60605;53.716;19.940;2023-09-19T06:40:42;23.60;;;19.60;;
57899;SDS011;60605;53.716;19.940;2023-09-19T06:45:45;23.00;;;20.50;;
57899;SDS011;60605;53.716;19.940;2023-09-19T06:50:49;20.90;;;18.60;;
57899;SDS011;60605;53.716;19.940;2023-09-19T06:55:53;26.20;;;22.00;;
57899;SDS011;60605;53.716;19.940;2023-09-19T07:00:57;24.30;;;21.20;;
57899;SDS011;60605;53.716;19.940;2023-09-19T07:06:00;30.70;;;23.70;;
57899;SDS011;60605;53.716;19.940;2023-09-19T07:11:07;30.80;;;23.20;;
57899;SDS011;60605;53.716;19.940;2023-09-19T07:16:11;27.80;;;22.20;;
57899;SDS011;60605;53.716;19.940;2023-09-19T07:21:30;27.10;;;22.20;;
57899;SDS011;60605;53.716;19.940;2023-09-19T07:26:36;31.30;;;23.60;;
57899;SDS011;60605;53.716;19.940;2023-09-19T07:31:39;35.90;;;25.30;;
57899;SDS011;60605;53.716;19.940;2023-09-19T07:36:42;31.20;;;22.60;;
57899;SDS011;60605;53.716;19.940;2023-09-19T07:41:46;25.20;;;21.60;;
57899;SDS011;60605;53.716;19.940;2023-09-19T07:46:52;21.40;;;19.10;;
57899;SDS011;60605;53.716;19.940;2023-09-19T07:51:56;21.50;;;19.30;;
57899;SDS011;60605;53.716;19.940;2023-09-19T07:57:00;21.00;;;18.70;;
57899;SDS011;60605;53.716;19.940;2023-09-19T08:02:04;25.20;;;18.90;;
57899;SDS011;60605;53.716;19.940;2023-09-19T08:07:08;20.30;;;18.20;;
57899;SDS011;60605;53.716;19.940;2023-09-19T08:12:12;18.30;;;15.60;;
57899;SDS011;60605;53.716;19.940;2023-09-19T08:17:15;17.70;;;15.00;;
57899;SDS011;60605;53.716;19.940;2023-09-19T08:22:21;14.20;;;12.80;;
57899;SDS011;60605;53.716;19.940;2023-09-19T08:27:25;14.40;;;10.90;;
57899;SDS011;60605;53.716;19.940;2023-09-19T08:32:31;14.80;;;11.40;;
57899;SDS011;60605;53.716;19.940;2023-09-19T08:37:35;13.30;;;10.30;;
57899;SDS011;60605;53.716;19.940;2023-09-19T08:42:51;12.90;;;11.00;;
57899;SDS011;60605;53.716;19.940;2023-09-19T08:48:08;20.70;;;14.00;;
57899;SDS011;60605;53.716;19.940;2023-09-19T08:53:22;15.50;;;11.00;;
57899;SDS011;60605;53.716;19.940;2023-09-19T08:58:37;13.10;;;9.90;;
57899;SDS011;60605;53.716;19.940;2023-09-19T09:08:51;12.50;;;8.80;;
57899;SDS011;60605;53.716;19.940;2023-09-19T09:13:55;9.40;;;8.00;;
57899;SDS011;60605;53.716;19.940;2023-09-19T09:18:59;10.30;;;8.50;;
57899;SDS011;60605;53.716;19.940;2023-09-19T09:29:49;8.70;;;6.80;;
57899;SDS011;60605;53.716;19.940;2023-09-19T09:34:55;7.80;;;6.70;;
57899;SDS011;60605;53.716;19.940;2023-09-19T09:40:03;9.50;;;6.30;;
57899;SDS011;60605;53.716;19.940;2023-09-19T09:45:23;10.00;;;5.70;;
57899;SDS011;60605;53.716;19.940;2023-09-19T09:50:36;6.40;;;5.70;;
57899;SDS011;60605;53.716;19.940;2023-09-19T10:01:04;7.40;;;5.80;;
57899;SDS011;60605;53.716;19.940;2023-09-19T10:06:18;10.00;;;5.50;;
57899;SDS011;60605;53.716;19.940;2023-09-19T10:11:28;8.10;;;6.00;;
57899;SDS011;60605;53.716;19.940;2023-09-19T10:16:33;7.30;;;5.90;;
57899;SDS011;60605;53.716;19.940;2023-09-19T10:21:41;6.60;;;6.00;;
57899;SDS011;60605;53.716;19.940;2023-09-19T10:26:46;6.80;;;5.60;;
57899;SDS011;60605;53.716;19.940;2023-09-19T10:31:53;6.60;;;5.50;;
57899;SDS011;60605;53.716;19.940;2023-09-19T10:36:58;6.20;;;5.60;;
57899;SDS011;60605;53.716;19.940;2023-09-19T10:42:08;7.40;;;5.60;;
57899;SDS011;60605;53.716;19.940;2023-09-19T10:47:20;8.00;;;5.70;;
57899;SDS011;60605;53.716;19.940;2023-09-19T10:52:27;8.00;;;5.30;;
57899;SDS011;60605;53.716;19.940;2023-09-19T10:57:31;7.40;;;5.80;;
57899;SDS011;60605;53.716;19.940;2023-09-19T11:02:37;6.90;;;5.90;;
57899;SDS011;60605;53.716;19.940;2023-09-19T11:07:56;7.20;;;6.20;;
57899;SDS011;60605;53.716;19.940;2023-09-19T11:13:11;9.20;;;5.90;;
57899;SDS011;60605;53.716;19.940;2023-09-19T11:23:44;7.70;;;6.40;;
57899;SDS011;60605;53.716;19.940;2023-09-19T11:29:26;8.20;;;7.40;;
57899;SDS011;60605;53.716;19.940;2023-09-19T11:50:53;7.80;;;6.10;;
57899;SDS011;60605;53.716;19.940;2023-09-19T11:55:57;8.70;;;6.30;;
57899;SDS011;60605;53.716;19.940;2023-09-19T12:01:03;7.70;;;6.50;;
57899;SDS011;60605;53.716;19.940;2023-09-19T12:06:11;8.00;;;5.80;;
57899;SDS011;60605;53.716;19.940;2023-09-19T12:11:19;5.50;;;4.90;;
57899;SDS011;60605;53.716;19.940;2023-09-19T12:16:24;5.00;;;4.40;;
57899;SDS011;60605;53.716;19.940;2023-09-19T12:26:42;4.80;;;4.30;;
57899;SDS011;60605;53.716;19.940;2023-09-19T12:31:49;7.70;;;5.70;;
57899;SDS011;60605;53.716;19.940;2023-09-19T12:37:08;5.80;;;4.40;;
57899;SDS011;60605;53.716;19.940;2023-09-19T12:42:34;4.70;;;4.10;;
57899;SDS011;60605;53.716;19.940;2023-09-19T12:47:38;4.90;;;4.50;;
57899;SDS011;60605;53.716;19.940;2023-09-19T12:52:49;7.40;;;4.40;;
57899;SDS011;60605;53.716;19.940;2023-09-19T12:58:01;5.90;;;4.30;;
57899;SDS011;60605;53.716;19.940;2023-09-19T13:03:24;4.70;;;3.80;;
57899;SDS011;60605;53.716;19.940;2023-09-19T13:08:32;6.70;;;4.30;;
57899;SDS011;60605;53.716;19.940;2023-09-19T13:18:57;6.20;;;4.20;;
57899;SDS011;60605;53.716;19.940;2023-09-19T13:24:19;5.20;;;3.80;;
57899;SDS011;60605;53.716;19.940;2023-09-19T13:29:25;4.50;;;3.30;;
57899;SDS011;60605;53.716;19.940;2023-09-19T13:34:29;4.20;;;3.60;;
57899;SDS011;60605;53.716;19.940;2023-09-19T13:39:33;6.80;;;3.80;;
57899;SDS011;60605;53.716;19.940;2023-09-19T13:44:39;4.30;;;3.50;;
57899;SDS011;60605;53.716;19.940;2023-09-19T13:49:44;5.70;;;3.60;;
57899;SDS011;60605;53.716;19.940;2023-09-19T13:54:47;7.60;;;3.70;;
57899;SDS011;60605;53.716;19.940;2023-09-19T13:59:54;4.20;;;3.20;;
57899;SDS011;60605;53.716;19.940;2023-09-19T14:04:58;3.10;;;2.80;;
57899;SDS011;60605;53.716;19.940;2023-09-19T14:10:04;4.30;;;2.40;;
57899;SDS011;60605;53.716;19.940;2023-09-19T14:15:10;5.20;;;2.70;;
57899;SDS011;60605;53.716;19.940;2023-09-19T14:20:14;2.60;;;2.40;;
57899;SDS011;60605;53.716;19.940;2023-09-19T14:25:18;2.50;;;2.20;;
57899;SDS011;60605;53.716;19.940;2023-09-19T14:30:25;2.40;;;2.20;;
57899;SDS011;60605;53.716;19.940;2023-09-19T14:35:30;3.40;;;2.30;;
57899;SDS011;60605;53.716;19.940;2023-09-19T14:40:34;2.80;;;2.10;;
57899;SDS011;60605;53.716;19.940;2023-09-19T14:45:39;3.40;;;2.20;;
57899;SDS011;60605;53.716;19.940;2023-09-19T14:50:43;2.40;;;2.20;;
57899;SDS011;60605;53.716;19.940;2023-09-19T14:55:47;4.10;;;2.10;;
57899;SDS011;60605;53.716;19.940;2023-09-19T15:00:54;3.40;;;2.40;;
57899;SDS011;60605;53.716;19.940;2023-09-19T15:06:11;2.80;;;1.90;;
57899;SDS011;60605;53.716;19.940;2023-09-19T15:11:19;3.50;;;2.30;;
57899;SDS011;60605;53.716;19.940;2023-09-19T15:16:23;2.50;;;2.10;;
57899;SDS011;60605;53.716;19.940;2023-09-19T15:21:27;2.30;;;2.00;;
57899;SDS011;60605;53.716;19.940;2023-09-19T15:26:30;6.60;;;2.80;;
57899;SDS011;60605;53.716;19.940;2023-09-19T15:31:33;5.70;;;2.40;;
57899;SDS011;60605;53.716;19.940;2023-09-19T15:36:39;5.00;;;2.30;;
57899;SDS011;60605;53.716;19.940;2023-09-19T15:41:45;3.30;;;2.40;;
57899;SDS011;60605;53.716;19.940;2023-09-19T15:46:52;2.50;;;2.20;;
57899;SDS011;60605;53.716;19.940;2023-09-19T15:51:55;4.30;;;2.40;;
57899;SDS011;60605;53.716;19.940;2023-09-19T15:56:59;10.70;;;8.30;;
57899;SDS011;60605;53.716;19.940;2023-09-19T16:02:02;16.40;;;10.00;;
57899;SDS011;60605;53.716;19.940;2023-09-19T16:07:07;8.50;;;4.20;;
57899;SDS011;60605;53.716;19.940;2023-09-19T16:12:10;5.10;;;2.90;;
57899;SDS011;60605;53.716;19.940;2023-09-19T16:17:15;3.50;;;2.40;;
57899;SDS011;60605;53.716;19.940;2023-09-19T16:22:18;5.20;;;3.00;;
57899;SDS011;60605;53.716;19.940;2023-09-19T16:27:22;5.50;;;3.10;;
57899;SDS011;60605;53.716;19.940;2023-09-19T16:32:26;4.30;;;2.60;;
57899;SDS011;60605;53.716;19.940;2023-09-19T16:37:30;5.90;;;3.50;;
57899;SDS011;60605;53.716;19.940;2023-09-19T16:42:33;4.60;;;3.00;;
57899;SDS011;60605;53.716;19.940;2023-09-19T16:47:41;9.20;;;2.80;;
57899;SDS011;60605;53.716;19.940;2023-09-19T16:52:44;4.10;;;2.60;;
57899;SDS011;60605;53.716;19.940;2023-09-19T16:57:48;3.00;;;2.70;;
57899;SDS011;60605;53.716;19.940;2023-09-19T17:02:51;4.60;;;3.30;;
57899;SDS011;60605;53.716;19.940;2023-09-19T17:07:58;4.70;;;3.00;;
57899;SDS011;60605;53.716;19.940;2023-09-19T17:13:04;5.50;;;3.00;;
57899;SDS011;60605;53.716;19.940;2023-09-19T17:18:11;5.90;;;3.40;;
57899;SDS011;60605;53.716;19.940;2023-09-19T17:23:15;6.70;;;4.10;;
57899;SDS011;60605;53.716;19.940;2023-09-19T17:28:19;11.40;;;5.80;;
57899;SDS011;60605;53.716;19.940;2023-09-19T17:33:26;12.50;;;11.10;;
57899;SDS011;60605;53.716;19.940;2023-09-19T17:38:31;19.20;;;12.40;;
57899;SDS011;60605;53.716;19.940;2023-09-19T17:43:34;26.20;;;17.70;;
57899;SDS011;60605;53.716;19.940;2023-09-19T17:48:41;16.50;;;12.10;;
57899;SDS011;60605;53.716;19.940;2023-09-19T17:53:49;13.30;;;9.30;;
57899;SDS011;60605;53.716;19.940;2023-09-19T17:58:54;9.10;;;7.00;;
57899;SDS011;60605;53.716;19.940;2023-09-19T18:03:58;7.90;;;5.50;;
57899;SDS011;60605;53.716;19.940;2023-09-19T18:09:04;7.90;;;4.50;;
57899;SDS011;60605;53.716;19.940;2023-09-19T18:14:10;6.40;;;4.30;;
57899;SDS011;60605;53.716;19.940;2023-09-19T18:19:13;4.80;;;4.30;;
57899;SDS011;60605;53.716;19.940;2023-09-19T18:24:18;6.60;;;4.00;;
57899;SDS011;60605;53.716;19.940;2023-09-19T18:29:22;7.00;;;4.60;;
57899;SDS011;60605;53.716;19.940;2023-09-19T18:34:25;6.40;;;4.10;;
57899;SDS011;60605;53.716;19.940;2023-09-19T18:39:29;5.90;;;4.00;;
57899;SDS011;60605;53.716;19.940;2023-09-19T18:44:34;4.30;;;3.70;;
57899;SDS011;60605;53.716;19.940;2023-09-19T18:49:37;5.00;;;4.20;;
57899;SDS011;60605;53.716;19.940;2023-09-19T18:54:42;4.70;;;4.20;;
57899;SDS011;60605;53.716;19.940;2023-09-19T18:59:46;9.90;;;5.10;;
57899;SDS011;60605;53.716;19.940;2023-09-19T19:04:51;5.00;;;4.20;;
57899;SDS011;60605;53.716;19.940;2023-09-19T19:09:55;7.40;;;4.30;;
57899;SDS011;60605;53.716;19.940;2023-09-19T19:15:00;8.30;;;5.40;;
57899;SDS011;60605;53.716;19.940;2023-09-19T19:20:10;5.50;;;4.70;;
57899;SDS011;60605;53.716;19.940;2023-09-19T19:25:14;6.50;;;4.30;;
57899;SDS011;60605;53.716;19.940;2023-09-19T19:30:19;7.90;;;4.50;;
57899;SDS011;60605;53.716;19.940;2023-09-19T19:35:23;5.80;;;4.80;;
57899;SDS011;60605;53.716;19.940;2023-09-19T19:40:32;7.20;;;5.40;;
57899;SDS011;60605;53.716;19.940;2023-09-19T19:45:35;6.90;;;5.30;;
57899;SDS011;60605;53.716;19.940;2023-09-19T19:50:40;7.60;;;5.40;;
57899;SDS011;60605;53.716;19.940;2023-09-19T19:55:44;8.20;;;5.70;;
57899;SDS011;60605;53.716;19.940;2023-09-19T20:00:49;9.90;;;5.50;;
57899;SDS011;60605;53.716;19.940;2023-09-19T20:05:59;9.40;;;5.90;;
57899;SDS011;60605;53.716;19.940;2023-09-19T20:11:04;9.30;;;6.10;;
57899;SDS011;60605;53.716;19.940;2023-09-19T20:16:10;13.60;;;6.60;;
57899;SDS011;60605;53.716;19.940;2023-09-19T20:21:15;9.10;;;6.20;;
57899;SDS011;60605;53.716;19.940;2023-09-19T20:32:04;6.70;;;5.80;;
57899;SDS011;60605;53.716;19.940;2023-09-19T20:37:10;9.10;;;6.60;;
57899;SDS011;60605;53.716;19.940;2023-09-19T20:42:14;7.10;;;6.40;;
57899;SDS011;60605;53.716;19.940;2023-09-19T20:47:17;8.40;;;6.60;;
57899;SDS011;60605;53.716;19.940;2023-09-19T20:52:21;8.90;;;7.60;;
57899;SDS011;60605;53.716;19.940;2023-09-19T20:57:24;10.60;;;8.10;;
57899;SDS011;60605;53.716;19.940;2023-09-19T21:07:30;12.10;;;8.00;;
57899;SDS011;60605;53.716;19.940;2023-09-19T21:12:34;13.70;;;9.20;;
57899;SDS011;60605;53.716;19.940;2023-09-19T21:17:38;13.20;;;9.20;;
57899;SDS011;60605;53.716;19.940;2023-09-19T21:22:46;12.50;;;8.30;;
57899;SDS011;60605;53.716;19.940;2023-09-19T21:27:50;13.70;;;8.60;;
57899;SDS011;60605;53.716;19.940;2023-09-19T21:32:53;9.90;;;8.10;;
57899;SDS011;60605;53.716;19.940;2023-09-19T21:37:56;11.60;;;8.60;;
57899;SDS011;60605;53.716;19.940;2023-09-19T21:43:00;11.50;;;8.20;;
57899;SDS011;60605;53.716;19.940;2023-09-19T21:58:09;9.50;;;7.80;;
57899;SDS011;60605;53.716;19.940;2023-09-19T22:08:16;11.60;;;8.90;;
57899;SDS011;60605;53.716;19.940;2023-09-19T22:13:20;9.80;;;8.60;;
57899;SDS011;60605;53.716;19.940;2023-09-19T22:18:25;12.90;;;9.60;;
57899;SDS011;60605;53.716;19.940;2023-09-19T22:23:33;15.20;;;10.30;;
57899;SDS011;60605;53.716;19.940;2023-09-19T22:28:44;11.60;;;9.00;;
57899;SDS011;60605;53.716;19.940;2023-09-19T22:33:54;11.90;;;9.10;;
57899;SDS011;60605;53.716;19.940;2023-09-19T22:38:58;10.10;;;8.80;;
57899;SDS011;60605;53.716;19.940;2023-09-19T22:44:03;12.70;;;9.00;;
57899;SDS011;60605;53.716;19.940;2023-09-19T22:49:09;9.80;;;8.60;;
57899;SDS011;60605;53.716;19.940;2023-09-19T22:54:20;12.10;;;8.00;;
57899;SDS011;60605;53.716;19.940;2023-09-19T22:59:30;10.70;;;8.20;;
57899;SDS011;60605;53.716;19.940;2023-09-19T23:04:35;8.80;;;7.90;;
57899;SDS011;60605;53.716;19.940;2023-09-19T23:09:40;10.70;;;8.40;;
57899;SDS011;60605;53.716;19.940;2023-09-19T23:14:46;11.20;;;8.20;;
57899;SDS011;60605;53.716;19.940;2023-09-19T23:19:49;9.70;;;8.60;;
57899;SDS011;60605;53.716;19.940;2023-09-19T23:24:55;10.50;;;8.50;;
57899;SDS011;60605;53.716;19.940;2023-09-19T23:30:15;10.60;;;8.30;;
57899;SDS011;60605;53.716;19.940;2023-09-19T23:35:22;9.40;;;8.00;;
57899;SDS011;60605;53.716;19.940;2023-09-19T23:40:26;12.40;;;8.60;;
57899;SDS011;60605;53.716;19.940;2023-09-19T23:45:31;9.60;;;8.40;;
57899;SDS011;60605;53.716;19.940;2023-09-19T23:50:34;13.90;;;8.40;;
57899;SDS011;60605;53.716;19.940;2023-09-19T23:55:46;12.90;;;8.50;;
